Time;durP1;ratioP1;P1;durP2;ratioP2;P2;SDS_P1;SDS_P2;PMS_P1;PMS_P2;Temp;Humidity;BMP_temperature;BMP_pressure;BME280_temperature;BME280_humidity;BME280_pressure;Samples;Min_cycle;Max_cycle;Signal;HPM_P1;HPM_P2
2023/06/03 00:00:32;;;;;;;;;;;;;;;17.74;46.78;100414.72;5059360;28;1091;-55
2023/06/03 00:02:59;;;;;;;;;;;;;;;17.86;46.99;100424.50;5058832;28;1159;-55
2023/06/03 00:05:24;;;;;;;;;;;;;;;17.58;46.40;100421.47;5059004;28;1218;-55
2023/06/03 00:07:50;;;;;;;;;;;;;;;17.47;45.94;100420.72;5042198;28;1979;-56
2023/06/03 00:10:15;;;;;;;;;;;;;;;18.20;46.27;100409.84;5048758;28;1040;-54
2023/06/03 00:12:41;;;;;;;;;;;;;;;17.84;47.18;100407.47;5059042;28;1047;-55
2023/06/03 00:15:07;;;;;;;;;;;;;;;17.59;46.68;100406.63;5058722;28;1150;-54
2023/06/03 00:17:33;;;;;;;;;;;;;;;17.52;46.12;100406.13;5055503;28;1131;-55
2023/06/03 00:20:06;;;;;;;;;;;;;;;17.73;46.24;100407.56;5038321;28;1106;-53
2023/06/03 00:22:37;;;;;;;;;;;;;;;18.06;47.59;100391.31;5056684;28;1214;-54
2023/06/03 00:25:06;;;;;;;;;;;;;;;17.74;47.06;100392.72;5058423;28;1102;-55
2023/06/03 00:27:32;;;;;;;;;;;;;;;17.55;46.49;100395.38;5058877;28;1913;-55
2023/06/03 00:29:58;;;;;;;;;;;;;;;17.81;46.72;100397.03;5040845;28;1313;-55
2023/06/03 00:32:23;;;;;;;;;;;;;;;18.21;47.48;100392.22;5044925;28;1175;-55
2023/06/03 00:34:49;;;;;;;;;;;;;;;17.82;47.24;100399.50;5047309;28;1119;-55
2023/06/03 00:37:14;;;;;;;;;;;;;;;17.58;46.54;100393.97;5056841;28;1075;-52
2023/06/03 00:39:40;;;;;;;;;;;;;;;17.43;46.14;100384.78;5040459;28;1143;-52
2023/06/03 00:42:05;;;;;;;;;;;;;;;17.51;45.23;100382.50;5053556;28;1227;-53
2023/06/03 00:44:31;;;;;;;;;;;;;;;18.10;46.79;100378.59;5049733;28;1064;-54
2023/06/03 00:46:57;;;;;;;;;;;;;;;17.62;46.86;100381.28;5057971;28;1135;-54
2023/06/03 00:49:22;;;;;;;;;;;;;;;17.53;46.16;100380.25;5040562;28;1909;-55
2023/06/03 00:51:48;;;;;;;;;;;;;;;17.45;45.50;100379.78;5040970;28;1172;-54
2023/06/03 00:54:14;;;;;;;;;;;;;;;17.74;45.74;100381.72;5057868;28;882;-55
2023/06/03 00:56:43;;;;;;;;;;;;;;;18.15;46.78;100385.16;5058085;28;1093;-53
2023/06/03 00:59:13;;;;;;;;;;;;;;;17.62;46.82;100378.53;5046295;28;1024;-55
2023/06/03 01:01:42;;;;;;;;;;;;;;;17.48;46.12;100378.41;5023250;28;1141;-55
2023/06/03 01:04:08;;;;;;;;;;;;;;;17.99;46.63;100377.06;5040199;28;1117;-54
2023/06/03 01:06:45;;;;;;;;;;;;;;;18.04;47.33;100373.44;5033699;28;1318;-55
2023/06/03 01:09:11;;;;;;;;;;;;;;;17.65;46.72;100382.63;5004887;28;1959;-54
2023/06/03 01:11:40;;;;;;;;;;;;;;;17.50;46.39;100389.09;5038519;28;1163;-54
2023/06/03 01:14:08;;;;;;;;;;;;;;;18.42;46.38;100390.84;5020221;28;1610;-55
2023/06/03 01:16:34;;;;;;;;;;;;;;;17.71;47.04;100393.31;5020142;28;1219;-55
2023/06/03 01:19:00;;;;;;;;;;;;;;;17.58;46.37;100382.97;5037230;28;1052;-54
2023/06/03 01:21:34;;;;;;;;;;;;;;;18.05;46.38;100381.41;5057879;28;1167;-53
2023/06/03 01:23:59;;;;;;;;;;;;;;;18.20;47.48;100385.06;5039607;28;1226;-55
2023/06/03 01:26:28;;;;;;;;;;;;;;;17.81;46.89;100386.03;5057390;28;1032;-54
2023/06/03 01:28:53;;;;;;;;;;;;;;;17.61;46.14;100387.88;5057421;28;1909;-54
2023/06/03 01:31:19;;;;;;;;;;;;;;;17.58;45.66;100385.72;5046669;28;861;-54
2023/06/03 01:33:45;;;;;;;;;;;;;;;18.40;46.96;100390.34;5021964;28;1760;-55
2023/06/03 01:36:12;;;;;;;;;;;;;;;18.00;47.44;100386.97;5040009;28;1171;-53
2023/06/03 01:38:37;;;;;;;;;;;;;;;17.71;46.64;100387.81;5039408;28;1239;-55
2023/06/03 01:41:03;;;;;;;;;;;;;;;17.57;46.33;100386.81;5039337;28;1103;-54
2023/06/03 01:43:29;;;;;;;;;;;;;;;18.42;47.24;100385.34;5038958;28;952;-56
2023/06/03 01:45:55;;;;;;;;;;;;;;;17.90;47.21;100384.31;5039219;28;1188;-56
2023/06/03 01:48:20;;;;;;;;;;;;;;;17.65;46.33;100382.63;5038984;28;1918;-56
2023/06/03 01:50:46;;;;;;;;;;;;;;;17.56;46.13;100383.28;5057301;28;1020;-56
2023/06/03 01:53:14;;;;;;;;;;;;;;;17.43;45.58;100393.00;5036614;28;1106;-56
2023/06/03 01:55:42;;;;;;;;;;;;;;;17.37;45.24;100390.59;5039334;28;1140;-56
2023/06/03 01:58:08;;;;;;;;;;;;;;;18.55;46.15;100392.06;5038774;28;1213;-56
2023/06/03 02:00:33;;;;;;;;;;;;;;;17.81;46.87;100394.28;5038994;28;1155;-56
2023/06/03 02:02:59;;;;;;;;;;;;;;;17.58;46.35;100386.53;5039126;28;1493;-56
2023/06/03 02:05:25;;;;;;;;;;;;;;;17.82;46.57;100387.69;5056419;28;1160;-56
2023/06/03 02:07:50;;;;;;;;;;;;;;;18.11;47.37;100388.47;5025272;28;1981;-52
2023/06/03 02:10:16;;;;;;;;;;;;;;;17.74;47.02;100403.72;5038966;28;1122;-53
2023/06/03 02:12:41;;;;;;;;;;;;;;;17.56;46.20;100390.72;5039183;28;1226;-52
2023/06/03 02:15:12;;;;;;;;;;;;;;;17.52;45.75;100395.94;5056479;28;1108;-52
2023/06/03 02:17:38;;;;;;;;;;;;;;;17.34;45.48;100396.66;5056135;28;1195;-52
2023/06/03 02:20:05;;;;;;;;;;;;;;;18.56;46.32;100392.88;5056816;28;1084;-54
2023/06/03 02:22:30;;;;;;;;;;;;;;;17.79;47.10;100380.84;5043147;28;1092;-53
2023/06/03 02:24:57;;;;;;;;;;;;;;;17.58;46.43;100382.97;5038915;28;1285;-54
2023/06/03 02:27:24;;;;;;;;;;;;;;;17.72;46.52;100397.66;5056489;28;1902;-53
2023/06/03 02:29:50;;;;;;;;;;;;;;;18.29;47.25;100397.09;5038154;28;1103;-56
2023/06/03 02:32:20;;;;;;;;;;;;;;;17.85;46.99;100403.59;5021070;28;1059;-55
2023/06/03 02:34:46;;;;;;;;;;;;;;;17.70;46.18;100401.84;5018582;28;1289;-55
2023/06/03 02:37:12;;;;;;;;;;;;;;;17.46;45.88;100399.88;5049859;28;1036;-55
2023/06/03 02:39:38;;;;;;;;;;;;;;;18.39;46.90;100402.44;5029607;28;1292;-55
2023/06/03 02:42:04;;;;;;;;;;;;;;;17.73;46.97;100401.25;5037987;28;1202;-54
2023/06/03 02:44:29;;;;;;;;;;;;;;;17.62;45.96;100392.28;5038305;28;1137;-53
2023/06/03 02:46:55;;;;;;;;;;;;;;;17.78;46.51;100388.28;5055843;28;1314;-55
2023/06/03 02:49:20;;;;;;;;;;;;;;;17.98;47.08;100386.44;5055795;28;1976;-56
2023/06/03 02:51:47;;;;;;;;;;;;;;;17.78;46.46;100376.44;5038419;28;1093;-54
2023/06/03 02:54:13;;;;;;;;;;;;;;;17.62;45.92;100379.34;5055828;28;1075;-55
2023/06/03 02:56:39;;;;;;;;;;;;;;;18.09;46.29;100385.22;5043021;28;1060;-54
2023/06/03 02:59:05;;;;;;;;;;;;;;;18.11;47.22;100379.41;5021566;28;1986;-55
2023/06/03 03:01:31;;;;;;;;;;;;;;;17.74;46.81;100381.72;5038098;28;1099;-55
2023/06/03 03:03:56;;;;;;;;;;;;;;;17.52;46.27;100379.47;5056038;28;1023;-55
2023/06/03 03:06:24;;;;;;;;;;;;;;;17.53;45.26;100380.25;5033687;28;1164;-55
2023/06/03 03:08:50;;;;;;;;;;;;;;;18.42;46.81;100382.59;5029358;28;1902;-55
2023/06/03 03:11:18;;;;;;;;;;;;;;;17.86;46.87;100377.75;5056091;28;1013;-54
2023/06/03 03:13:44;;;;;;;;;;;;;;;17.65;45.92;100377.16;5038102;28;1195;-55
2023/06/03 03:16:11;;;;;;;;;;;;;;;17.50;45.58;100380.84;5038148;28;1259;-58
2023/06/03 03:18:38;;;;;;;;;;;;;;;18.11;46.43;100382.97;5021483;28;1139;-60
2023/06/03 03:21:06;;;;;;;;;;;;;;;18.04;47.17;100388.00;5037759;28;1135;-56
2023/06/03 03:23:32;;;;;;;;;;;;;;;17.64;46.74;100384.56;5037755;28;1100;-56
2023/06/03 03:26:02;;;;;;;;;;;;;;;17.58;46.12;100378.28;5056178;28;1144;-57
2023/06/03 03:28:31;;;;;;;;;;;;;;;17.74;46.69;100386.38;5038185;28;1977;-56
2023/06/03 03:31:00;;;;;;;;;;;;;;;17.95;46.94;100385.09;5036506;28;1359;-56
2023/06/03 03:33:26;;;;;;;;;;;;;;;17.61;46.72;100385.13;5002284;28;1218;-57
2023/06/03 03:35:52;;;;;;;;;;;;;;;17.51;45.93;100386.06;5036027;28;1202;-56
2023/06/03 03:38:20;;;;;;;;;;;;;;;17.47;45.36;100389.69;5031321;28;1401;-57
2023/06/03 03:40:45;;;;;;;;;;;;;;;18.20;46.44;100382.31;5037894;28;1140;-58
2023/06/03 03:43:15;;;;;;;;;;;;;;;17.81;46.75;100383.28;5054945;28;1192;-57
2023/06/03 03:45:41;;;;;;;;;;;;;;;17.54;46.57;100381.91;5017858;28;1258;-56
2023/06/03 03:48:15;;;;;;;;;;;;;;;18.04;46.52;100377.00;5032727;28;1902;-57
2023/06/03 03:50:44;;;;;;;;;;;;;;;18.05;47.01;100375.09;5037709;28;1389;-56
2023/06/03 03:53:13;;;;;;;;;;;;;;;17.64;47.20;100387.31;5023181;28;1285;-55
2023/06/03 03:55:40;;;;;;;;;;;;;;;17.69;46.89;100387.25;5027934;28;1298;-56
2023/06/03 03:58:20;;;;;;;;;;;;;;;17.56;46.41;100385.22;5037223;28;1108;-54
2023/06/03 04:00:47;;;;;;;;;;;;;;;17.50;45.76;100392.69;5037331;28;1386;-58
2023/06/03 04:03:13;;;;;;;;;;;;;;;17.38;45.51;100395.00;5058069;28;1587;-57
2023/06/03 04:05:38;;;;;;;;;;;;;;;18.26;46.82;100392.19;5056905;28;1262;-57
2023/06/03 04:08:04;;;;;;;;;;;;;;;17.72;46.76;100399.63;5036918;28;1981;-57
2023/06/03 04:10:29;;;;;;;;;;;;;;;17.55;46.29;100389.06;5021513;28;1612;-57
2023/06/03 04:12:55;;;;;;;;;;;;;;;17.71;46.57;100392.47;5056687;28;1175;-56
2023/06/03 04:15:30;;;;;;;;;;;;;;;18.00;47.08;100388.91;5040739;28;1718;-57
2023/06/03 04:17:56;;;;;;;;;;;;;;;17.57;46.79;100386.81;5039582;28;1441;-57
2023/06/03 04:20:40;;;;;;;;;;;;;;;17.46;46.08;100388.88;5037778;28;1452;-56
2023/06/03 04:23:07;;;;;;;;;;;;;;;17.95;47.18;100398.03;5040605;28;1102;-55
2023/06/03 04:25:33;;;;;;;;;;;;;;;17.64;46.80;100397.50;5024118;28;1064;-55
2023/06/03 04:27:59;;;;;;;;;;;;;;;17.57;46.08;100398.66;5057825;28;1967;-56
2023/06/03 04:30:25;;;;;;;;;;;;;;;17.49;45.39;100403.94;5040634;28;1261;-55
2023/06/03 04:32:51;;;;;;;;;;;;;;;18.32;46.81;100410.25;5029008;28;1116;-56
2023/06/03 04:35:18;;;;;;;;;;;;;;;17.69;47.00;100416.69;5040584;28;1886;-55
2023/06/03 04:37:45;;;;;;;;;;;;;;;17.59;46.38;100412.13;5039664;28;1144;-56
2023/06/03 04:40:15;;;;;;;;;;;;;;;18.10;46.45;100408.88;5035751;28;1323;-57
2023/06/03 04:42:42;;;;;;;;;;;;;;;17.86;47.13;100408.00;5039927;28;1385;-58
2023/06/03 04:45:09;;;;;;;;;;;;;;;17.68;46.57;100410.34;5026815;28;1483;-57
2023/06/03 04:47:41;;;;;;;;;;;;;;;17.54;46.07;100412.97;5040502;28;1910;-57
2023/06/03 04:50:09;;;;;;;;;;;;;;;18.30;46.67;100418.81;5040175;28;1401;-58
2023/06/03 04:52:35;;;;;;;;;;;;;;;17.79;46.81;100422.94;5027699;28;1266;-57
2023/06/03 04:55:02;;;;;;;;;;;;;;;17.65;46.08;100424.69;5039075;28;1138;-57
2023/06/03 04:57:27;;;;;;;;;;;;;;;17.98;45.55;100430.47;5039910;28;1056;-59
2023/06/03 04:59:53;;;;;;;;;;;;;;;18.51;45.44;100428.72;5032228;28;1308;-57
2023/06/03 05:02:23;;;;;;;;;;;;;;;18.08;46.73;100435.84;5039874;28;1457;-57
2023/06/03 05:04:50;;;;;;;;;;;;;;;17.82;47.71;100427.00;5040051;28;1346;-57
2023/06/03 05:07:17;;;;;;;;;;;;;;;17.71;48.26;100434.56;5039911;28;1120;-57
2023/06/03 05:09:44;;;;;;;;;;;;;;;17.52;49.11;100444.63;5027663;28;1910;-56
2023/06/03 05:12:10;;;;;;;;;;;;;;;17.48;49.72;100447.13;5038865;28;1915;-51
2023/06/03 05:14:36;;;;;;;;;;;;;;;17.46;50.82;100446.59;5040006;28;1309;-50
2023/06/03 05:17:01;;;;;;;;;;;;;;;17.43;52.01;100453.47;5057950;28;1187;-55
2023/06/03 05:19:28;;;;;;;;;;;;;;;17.22;53.22;100447.31;5039816;28;1188;-54
2023/06/03 05:21:53;;;;;;;;;;;;;;;17.10;53.67;100449.59;5026676;28;1271;-56
2023/06/03 05:24:20;;;;;;;;;;;;;;;17.03;53.84;100449.09;5039278;28;1150;-59
2023/06/03 05:26:47;;;;;;;;;;;;;;;16.94;53.96;100457.09;5032986;28;1377;-56
2023/06/03 05:29:15;;;;;;;;;;;;;;;16.91;53.83;100457.69;5032765;28;1914;-55
2023/06/03 05:31:40;;;;;;;;;;;;;;;16.81;53.81;100468.69;5037259;28;1359;-57
2023/06/03 05:34:07;;;;;;;;;;;;;;;16.74;53.85;100469.81;5033598;28;1360;-56
2023/06/03 05:36:33;;;;;;;;;;;;;;;16.72;53.87;100472.03;5049802;28;1131;-57
2023/06/03 05:39:01;;;;;;;;;;;;;;;16.70;53.89;100473.41;5039646;28;1225;-57
2023/06/03 05:41:29;;;;;;;;;;;;;;;16.57;54.14;100474.84;5039680;28;1131;-56
2023/06/03 05:43:55;;;;;;;;;;;;;;;16.55;54.14;100477.03;5032717;28;1147;-57
2023/06/03 05:46:21;;;;;;;;;;;;;;;16.50;54.72;100475.13;5037519;28;1222;-53
2023/06/03 05:48:47;;;;;;;;;;;;;;;16.62;55.17;100484.97;5056826;28;1914;-56
2023/06/03 05:51:13;;;;;;;;;;;;;;;16.66;55.98;100494.28;5057171;28;1409;-57
2023/06/03 05:53:43;;;;;;;;;;;;;;;16.67;56.31;100485.78;5057190;28;1186;-54
2023/06/03 05:56:10;;;;;;;;;;;;;;;16.66;56.33;100492.38;5038294;28;1048;-55
2023/06/03 05:58:36;;;;;;;;;;;;;;;16.49;56.74;100500.13;5026451;28;1446;-57
2023/06/03 06:01:01;;;;;;;;;;;;;;;16.45;56.30;100504.53;5055630;28;1106;-57
2023/06/03 06:03:27;;;;;;;;;;;;;;;16.40;56.04;100511.66;5033579;28;1121;-59
2023/06/03 06:05:52;;;;;;;;;;;;;;;16.29;56.36;100509.25;5056649;28;1135;-58
2023/06/03 06:08:18;;;;;;;;;;;;;;;16.29;56.05;100518.28;5037195;28;1917;-58
2023/06/03 06:10:44;;;;;;;;;;;;;;;16.26;55.87;100513.34;5026565;28;1424;-58
2023/06/03 06:13:09;;;;;;;;;;;;;;;16.23;56.00;100513.94;5053836;28;1009;-54
2023/06/03 06:15:35;;;;;;;;;;;;;;;16.18;56.06;100522.16;5033118;28;1119;-56
2023/06/03 06:18:01;;;;;;;;;;;;;;;16.20;55.60;100536.41;5030974;28;1298;-56
2023/06/03 06:20:26;;;;;;;;;;;;;;;16.10;55.81;100547.41;5032794;28;1131;-53
2023/06/03 06:22:52;;;;;;;;;;;;;;;16.16;55.65;100554.50;5019180;28;1432;-58
2023/06/03 06:25:18;;;;;;;;;;;;;;;16.22;56.02;100545.19;5037456;28;1112;-55
2023/06/03 06:27:43;;;;;;;;;;;;;;;16.25;55.73;100548.19;5038406;28;1913;-59
2023/06/03 06:30:14;;;;;;;;;;;;;;;16.17;55.78;100536.97;5038573;28;1135;-59
2023/06/03 06:32:47;;;;;;;;;;;;;;;16.18;55.70;100535.88;5031830;28;1209;-57
2023/06/03 06:35:12;;;;;;;;;;;;;;;16.17;55.21;100542.44;5049850;28;1065;-55
2023/06/03 06:37:38;;;;;;;;;;;;;;;16.61;55.25;100530.81;5022041;28;1392;-58
2023/06/03 06:40:04;;;;;;;;;;;;;;;17.24;54.83;100532.22;5025995;28;1340;-56
2023/06/03 06:42:36;;;;;;;;;;;;;;;16.65;56.00;100526.41;5023235;28;1308;-57
2023/06/03 06:45:23;;;;;;;;;;;;;;;16.50;55.96;100529.22;5034695;28;1261;-59
2023/06/03 06:47:49;;;;;;;;;;;;;;;16.40;55.84;100533.63;5029088;28;1914;-59
2023/06/03 06:50:30;;;;;;;;;;;;;;;16.31;55.74;100538.03;5038468;28;1213;-57
2023/06/03 06:52:56;;;;;;;;;;;;;;;16.25;55.71;100545.44;5056481;28;1032;-59
2023/06/03 06:55:34;;;;;;;;;;;;;;;16.19;55.74;100551.25;5038538;28;1212;-58
2023/06/03 06:57:59;;;;;;;;;;;;;;;16.20;55.76;100542.72;5032062;28;1119;-59
2023/06/03 07:00:27;;;;;;;;;;;;;;;16.17;55.54;100543.28;5038817;28;1183;-58
2023/06/03 07:02:53;;;;;;;;;;;;;;;16.19;55.64;100556.72;5038362;28;1289;-59
2023/06/03 07:05:18;;;;;;;;;;;;;;;17.55;54.78;100548.50;5038503;28;1140;-59
2023/06/03 07:07:44;;;;;;;;;;;;;;;17.03;56.02;100551.56;5037890;28;1971;-61
2023/06/03 07:10:10;;;;;;;;;;;;;;;16.77;56.53;100556.28;5030294;28;1162;-61
2023/06/03 07:12:36;;;;;;;;;;;;;;;16.62;56.29;100559.09;5033204;28;1148;-59
2023/06/03 07:15:01;;;;;;;;;;;;;;;16.53;56.23;100565.16;5033346;28;1243;-58
2023/06/03 07:17:27;;;;;;;;;;;;;;;16.45;55.90;100564.91;5035235;28;1154;-58
2023/06/03 07:19:53;;;;;;;;;;;;;;;16.37;55.85;100566.31;5056196;28;989;-58
2023/06/03 07:22:19;;;;;;;;;;;;;;;16.31;55.83;100565.47;5021317;28;1067;-58
2023/06/03 07:24:45;;;;;;;;;;;;;;;16.29;55.81;100573.16;5028867;28;1151;-59
2023/06/03 07:27:10;;;;;;;;;;;;;;;16.25;55.62;100561.09;5018465;28;1142;-56
2023/06/03 07:29:38;;;;;;;;;;;;;;;16.15;55.77;100567.41;5038339;28;1901;-57
2023/06/03 07:32:07;;;;;;;;;;;;;;;16.19;55.45;100562.22;5021736;28;1338;-54
2023/06/03 07:34:34;;;;;;;;;;;;;;;16.12;55.60;100575.34;5032916;28;1079;-56
2023/06/03 07:37:01;;;;;;;;;;;;;;;17.38;55.11;100576.38;5038013;28;1140;-57
2023/06/03 07:39:30;;;;;;;;;;;;;;;17.00;55.68;100565.84;5036433;28;1373;-56
2023/06/03 07:42:00;;;;;;;;;;;;;;;16.63;56.35;100567.03;5041851;28;1099;-58
2023/06/03 07:44:44;;;;;;;;;;;;;;;16.56;56.07;100566.53;5038096;28;1383;-58
2023/06/03 07:47:16;;;;;;;;;;;;;;;16.43;56.29;100565.19;5050436;28;1032;-57
2023/06/03 07:49:43;;;;;;;;;;;;;;;16.42;55.85;100571.75;5058858;28;1978;-57
2023/06/03 07:52:09;;;;;;;;;;;;;;;16.33;55.88;100563.28;5059791;28;1190;-57
2023/06/03 07:54:35;;;;;;;;;;;;;;;16.28;55.98;100571.50;5041991;28;1056;-57
2023/06/03 07:57:01;;;;;;;;;;;;;;;16.19;56.26;100562.22;5056249;28;1032;-57
2023/06/03 07:59:27;;;;;;;;;;;;;;;16.21;55.55;100570.97;5059519;28;1088;-57
2023/06/03 08:01:53;;;;;;;;;;;;;;;16.14;55.90;100562.22;5059065;28;1028;-57
2023/06/03 08:04:26;;;;;;;;;;;;;;;16.14;55.65;100567.69;5059053;28;1072;-57
2023/06/03 08:06:52;;;;;;;;;;;;;;;16.15;55.66;100566.59;5059301;28;1166;-57
2023/06/03 08:09:36;;;;;;;;;;;;;;;17.11;55.27;100555.66;5052692;28;1985;-55
2023/06/03 08:12:03;;;;;;;;;;;;;;;16.95;55.80;100556.81;5054249;28;1076;-56
2023/06/03 08:14:32;;;;;;;;;;;;;;;16.62;56.38;100562.69;5058625;28;1091;-57
2023/06/03 08:17:02;;;;;;;;;;;;;;;16.50;56.50;100562.97;5058215;28;1155;-61
2023/06/03 08:19:28;;;;;;;;;;;;;;;16.45;56.25;100556.66;5056666;28;1249;-57
2023/06/03 08:21:53;;;;;;;;;;;;;;;16.32;56.30;100561.63;5057672;28;1159;-57
2023/06/03 08:24:19;;;;;;;;;;;;;;;16.34;55.98;100564.09;5058533;28;1218;-61
2023/06/03 08:26:45;;;;;;;;;;;;;;;16.29;55.75;100564.94;5050752;28;1182;-62
2023/06/03 08:29:11;;;;;;;;;;;;;;;16.22;56.00;100564.41;5058113;28;1958;-58
2023/06/03 08:31:37;;;;;;;;;;;;;;;16.21;55.66;100560.00;5058190;28;1084;-61
2023/06/03 08:34:03;;;;;;;;;;;;;;;16.16;55.74;100565.47;5057417;28;1139;-56
2023/06/03 08:36:28;;;;;;;;;;;;;;;16.12;55.82;100562.47;5056807;28;1227;-58
2023/06/03 08:38:54;;;;;;;;;;;;;;;16.17;55.98;100567.13;5057664;28;1180;-60
2023/06/03 08:41:21;;;;;;;;;;;;;;;17.56;54.66;100564.72;5057195;28;1321;-56
2023/06/03 08:43:49;;;;;;;;;;;;;;;16.96;55.80;100564.78;5040793;28;1258;-57
2023/06/03 08:46:20;;;;;;;;;;;;;;;16.60;56.44;100556.63;5058027;28;1249;-57
2023/06/03 08:49:03;;;;;;;;;;;;;;;16.51;56.46;100558.28;5058429;28;1972;-57
2023/06/03 08:51:33;;;;;;;;;;;;;;;16.46;56.26;100553.66;5047065;28;1129;-56
2023/06/03 08:53:58;;;;;;;;;;;;;;;16.38;56.09;100555.03;5040707;28;1048;-57
2023/06/03 08:56:25;;;;;;;;;;;;;;;16.38;55.96;100560.53;5058450;28;1223;-58
2023/06/03 08:59:00;;;;;;;;;;;;;;;16.30;55.92;100565.75;5027394;28;861;-59
2023/06/03 09:01:35;;;;;;;;;;;;;;;16.28;55.88;100560.53;5029542;28;1224;-59
2023/06/03 09:04:00;;;;;;;;;;;;;;;16.22;55.83;100561.66;5056702;28;1194;-61
2023/06/03 09:06:26;;;;;;;;;;;;;;;16.19;56.11;100559.47;5040387;28;1052;-61
2023/06/03 09:08:51;;;;;;;;;;;;;;;16.16;55.88;100562.75;5049502;28;1922;-56
2023/06/03 09:11:17;;;;;;;;;;;;;;;16.42;55.88;100558.03;5045516;28;1048;-55
2023/06/03 09:13:42;;;;;;;;;;;;;;;17.57;54.49;100568.28;5043431;28;1139;-56
2023/06/03 09:16:09;;;;;;;;;;;;;;;16.90;56.26;100560.38;5057715;28;1136;-55
2023/06/03 09:18:34;;;;;;;;;;;;;;;16.71;56.51;100558.22;5040203;28;1084;-54
2023/06/03 09:21:00;;;;;;;;;;;;;;;16.53;56.43;100550.63;5057655;28;1195;-56
2023/06/03 09:23:26;;;;;;;;;;;;;;;16.51;56.31;100563.78;5044259;28;1106;-56
2023/06/03 09:25:51;;;;;;;;;;;;;;;16.45;56.70;100557.47;5038559;28;1525;-57
2023/06/03 09:28:17;;;;;;;;;;;;;;;16.38;56.63;100566.03;5050475;28;1910;-59
2023/06/03 09:30:43;;;;;;;;;;;;;;;16.38;56.32;100562.44;5040103;28;1148;-59
2023/06/03 09:33:09;;;;;;;;;;;;;;;16.33;56.25;100571.50;5039698;28;1143;-57
2023/06/03 09:35:34;;;;;;;;;;;;;;;16.31;56.28;100570.94;5043773;28;1122;-59
2023/06/03 09:38:00;;;;;;;;;;;;;;;16.27;56.40;100563.56;5057216;28;1075;-56
2023/06/03 09:40:27;;;;;;;;;;;;;;;16.28;56.28;100573.44;5057554;28;1012;-55
2023/06/03 09:42:53;;;;;;;;;;;;;;;16.26;56.15;100573.72;5056815;28;1195;-57
2023/06/03 09:45:31;;;;;;;;;;;;;;;16.18;56.21;100571.53;5049046;28;1175;-59
2023/06/03 09:47:57;;;;;;;;;;;;;;;16.16;56.14;100569.06;5047145;28;1891;-56
2023/06/03 09:50:23;;;;;;;;;;;;;;;16.66;56.19;100576.66;5056683;28;1077;-57
2023/06/03 09:52:49;;;;;;;;;;;;;;;17.48;55.48;100575.50;5055783;28;1120;-57
2023/06/03 09:55:15;;;;;;;;;;;;;;;16.81;56.94;100582.09;5050005;28;1175;-58
2023/06/03 09:57:41;;;;;;;;;;;;;;;16.62;56.92;100587.38;5048637;28;1080;-58
2023/06/03 10:00:12;;;;;;;;;;;;;;;16.56;56.91;100583.00;5038722;28;1223;-59
2023/06/03 10:02:46;;;;;;;;;;;;;;;16.51;56.56;100585.72;5049544;28;997;-62
2023/06/03 10:05:27;;;;;;;;;;;;;;;16.46;56.65;100583.03;5056739;28;1079;-61
2023/06/03 10:07:53;;;;;;;;;;;;;;;16.40;56.67;100574.78;5057012;28;1967;-59
2023/06/03 10:10:18;;;;;;;;;;;;;;;16.39;56.46;100577.81;5047995;28;885;-58
2023/06/03 10:12:45;;;;;;;;;;;;;;;16.32;56.26;100582.75;5038447;28;1025;-56
2023/06/03 10:15:11;;;;;;;;;;;;;;;16.31;56.39;100581.13;5039574;28;1036;-62
2023/06/03 10:17:44;;;;;;;;;;;;;;;16.27;56.23;100591.84;5056943;28;1086;-60
2023/06/03 10:20:09;;;;;;;;;;;;;;;16.24;56.04;100589.63;5056899;28;1116;-60
2023/06/03 10:22:35;;;;;;;;;;;;;;;16.18;56.14;100590.72;5053671;28;1519;-57
2023/06/03 10:25:00;;;;;;;;;;;;;;;16.21;56.08;100590.19;5045508;28;1072;-57
2023/06/03 10:27:26;;;;;;;;;;;;;;;16.17;56.23;100586.34;5039128;28;1163;-59
2023/06/03 10:29:53;;;;;;;;;;;;;;;17.10;55.96;100582.28;5038861;28;1942;-62
2023/06/03 10:32:20;;;;;;;;;;;;;;;17.26;55.98;100585.78;5056798;28;1119;-60
2023/06/03 10:34:47;;;;;;;;;;;;;;;16.79;56.94;100581.56;5045171;28;847;-56
2023/06/03 10:37:14;;;;;;;;;;;;;;;16.64;57.06;100585.16;5054155;28;1020;-56
2023/06/03 10:39:42;;;;;;;;;;;;;;;16.56;56.74;100583.00;5056539;28;1135;-58
2023/06/03 10:42:09;;;;;;;;;;;;;;;16.51;56.87;100585.72;5056257;28;1067;-59
2023/06/03 10:44:35;;;;;;;;;;;;;;;16.39;56.93;100592.34;5038410;28;1507;-62
2023/06/03 10:47:06;;;;;;;;;;;;;;;16.40;56.58;100591.25;5050470;28;1199;-56
2023/06/03 10:49:35;;;;;;;;;;;;;;;16.36;56.32;100590.16;5036536;28;1918;-56
2023/06/03 10:52:20;;;;;;;;;;;;;;;16.33;56.18;100585.22;5024810;28;1219;-58
2023/06/03 10:54:54;;;;;;;;;;;;;;;16.30;56.31;100588.53;5043104;28;1223;-58
2023/06/03 10:57:21;;;;;;;;;;;;;;;16.26;56.23;100584.69;5056626;28;1148;-57
2023/06/03 10:59:46;;;;;;;;;;;;;;;16.23;56.43;100579.78;5042109;28;937;-56
2023/06/03 11:02:12;;;;;;;;;;;;;;;16.29;56.12;100584.13;5045817;28;1079;-55
2023/06/03 11:04:39;;;;;;;;;;;;;;;17.03;56.30;100581.78;5054339;28;1048;-58
2023/06/03 11:07:05;;;;;;;;;;;;;;;17.23;56.30;100574.53;5060381;28;1004;-61
2023/06/03 11:09:31;;;;;;;;;;;;;;;16.80;57.09;100576.88;5059962;28;1981;-60
2023/06/03 11:12:04;;;;;;;;;;;;;;;16.70;57.12;100586.78;5049476;28;1165;-60
2023/06/03 11:14:29;;;;;;;;;;;;;;;16.58;56.87;100580.81;5039722;28;1186;-59
2023/06/03 11:16:57;;;;;;;;;;;;;;;16.47;56.84;100584.69;5051474;28;1052;-60
2023/06/03 11:19:26;;;;;;;;;;;;;;;16.50;56.75;100589.59;5059980;28;1067;-59
2023/06/03 11:21:52;;;;;;;;;;;;;;;16.40;56.71;100595.94;5059845;28;1215;-59
2023/06/03 11:24:35;;;;;;;;;;;;;;;16.37;56.45;100591.81;5041091;28;1110;-60
2023/06/03 11:27:01;;;;;;;;;;;;;;;16.33;56.30;100587.97;5054290;28;1057;-59
2023/06/03 11:29:45;;;;;;;;;;;;;;;16.31;56.48;100587.41;5053146;28;1918;-59
2023/06/03 11:32:11;;;;;;;;;;;;;;;16.31;56.29;100597.56;5059541;28;1024;-58
2023/06/03 11:34:37;;;;;;;;;;;;;;;16.23;56.07;100594.28;5056329;28;1278;-59
2023/06/03 11:37:03;;;;;;;;;;;;;;;16.83;56.45;100596.38;5053982;28;1088;-59
2023/06/03 11:39:29;;;;;;;;;;;;;;;17.28;56.33;100594.56;5058278;28;1074;-58
2023/06/03 11:42:01;;;;;;;;;;;;;;;16.79;57.07;100595.28;5041988;28;1060;-58
2023/06/03 11:44:27;;;;;;;;;;;;;;;16.63;56.97;100594.50;5059810;28;1143;-58
2023/06/03 11:46:53;;;;;;;;;;;;;;;16.52;57.18;100595.63;5058984;28;1228;-58
2023/06/03 11:49:19;;;;;;;;;;;;;;;16.46;56.72;100599.50;5059226;28;1906;-58
2023/06/03 11:51:46;;;;;;;;;;;;;;;16.40;57.02;100596.75;5059382;28;1108;-59
2023/06/03 11:54:12;;;;;;;;;;;;;;;16.36;56.66;100589.34;5041830;28;1167;-59
2023/06/03 11:56:51;;;;;;;;;;;;;;;16.32;56.76;100589.06;5059264;28;1168;-59
2023/06/03 11:59:19;;;;;;;;;;;;;;;16.30;56.54;100588.53;5042066;28;845;-57
2023/06/03 12:01:57;;;;;;;;;;;;;;;16.22;56.38;100591.84;5054721;28;1020;-58
2023/06/03 12:04:22;;;;;;;;;;;;;;;16.19;56.61;100584.97;5059263;28;1046;-57
2023/06/03 12:06:48;;;;;;;;;;;;;;;16.19;56.35;100589.66;5059463;28;1200;-56
2023/06/03 12:09:18;;;;;;;;;;;;;;;16.20;56.31;100577.56;5059026;28;1910;-59
2023/06/03 12:11:43;;;;;;;;;;;;;;;16.29;56.46;100584.13;5054917;28;1123;-58
2023/06/03 12:14:10;;;;;;;;;;;;;;;17.55;56.23;100593.31;5050124;28;1417;-58
2023/06/03 12:16:36;;;;;;;;;;;;;;;16.99;57.12;100602.66;5058309;28;1028;-59
2023/06/03 12:19:03;;;;;;;;;;;;;;;16.72;57.49;100603.81;5054895;28;1302;-57
2023/06/03 12:21:29;;;;;;;;;;;;;;;16.62;57.30;100603.84;5059273;28;1031;-58
2023/06/03 12:23:56;;;;;;;;;;;;;;;16.52;57.08;100601.09;5045394;28;874;-56
2023/06/03 12:26:22;;;;;;;;;;;;;;;16.41;57.10;100601.13;5052908;28;971;-56
2023/06/03 12:28:47;;;;;;;;;;;;;;;16.34;56.99;100611.59;5059247;28;1910;-63
2023/06/03 12:31:14;;;;;;;;;;;;;;;16.32;56.78;100608.28;5058106;28;1075;-58
2023/06/03 12:33:43;;;;;;;;;;;;;;;16.24;56.65;100611.56;5058799;28;1179;-62
2023/06/03 12:36:09;;;;;;;;;;;;;;;16.23;56.75;100612.69;5049586;28;858;-61
2023/06/03 12:38:55;;;;;;;;;;;;;;;16.23;56.60;100612.69;5038797;28;1238;-62
2023/06/03 12:41:20;;;;;;;;;;;;;;;16.74;57.10;100611.78;5049747;28;1793;-56
2023/06/03 12:43:46;;;;;;;;;;;;;;;17.54;56.75;100608.16;5058701;28;1092;-57
2023/06/03 12:46:21;;;;;;;;;;;;;;;16.89;57.73;100610.94;5058725;28;1203;-57
2023/06/03 12:48:46;;;;;;;;;;;;;;;16.72;57.40;100614.81;5045306;28;1898;-63